Time;durP1;ratioP1;P1;durP2;ratioP2;P2;SDS_P1;SDS_P2;PMS_P1;PMS_P2;Temp;Humidity;BMP_temperature;BMP_pressure;BME280_temperature;BME280_humidity;BME280_pressure;Samples;Min_cycle;Max_cycle;Signal;HPM_P1;HPM_P2
2020/04/23 00:00:11;;;;;;;5.4;3.3;;;;;;;11.22;46.93457;959.8038;;;;
2020/04/23 00:02:47;;;;;;;5.7;3.4;;;;;;;11.18;46.71191;959.8421;;;;
2020/04/23 00:05:01;;;;;;;4.1;3;;;;;;;11.23;46.93652;959.8201;;;;
2020/04/23 00:07:26;;;;;;;4.3;3.3;;;;;;;11.24;46.58008;959.8317;;;;
2020/04/23 00:09:51;;;;;;;5.6;3.4;;;;;;;11.33;46.18555;959.8184;;;;
2020/04/23 00:12:16;;;;;;;4.4;3.1;;;;;;;11.22;46.26758;959.7459;;;;
2020/04/23 00:14:41;;;;;;;5.7;3.2;;;;;;;11.15;46.01855;959.818;;;;
2020/04/23 00:17:06;;;;;;;4.9;3.3;;;;;;;11.12;47.25879;959.859;;;;
2020/04/23 00:19:31;;;;;;;5.6;3.2;;;;;;;11.14;46.7998;959.8399;;;;
2020/04/23 00:21:56;;;;;;;4.8;3.3;;;;;;;10.88;47.54297;959.7847;;;;
2020/04/23 00:24:22;;;;;;;6.3;3.4;;;;;;;10.98;47.85449;959.7949;;;;
2020/04/23 00:26:47;;;;;;;6.3;3.6;;;;;;;10.82;47.12207;959.8333;;;;
2020/04/23 00:29:12;;;;;;;5.5;3.5;;;;;;;10.76;48.12988;959.7972;;;;
2020/04/23 00:31:38;;;;;;;5.5;3.5;;;;;;;10.92;48.06641;959.8582;;;;
2020/04/23 00:34:03;;;;;;;6;3.6;;;;;;;10.94;47.00977;959.8176;;;;
2020/04/23 00:36:29;;;;;;;7.4;3.6;;;;;;;10.88;47.90137;959.8254;;;;
2020/04/23 00:38:54;;;;;;;5.4;3.5;;;;;;;10.78;48.36133;959.8066;;;;
2020/04/23 00:41:19;;;;;;;6.1;3.5;;;;;;;10.82;48.38867;959.7167;;;;
2020/04/23 00:43:45;;;;;;;6.3;3.6;;;;;;;10.8;48.59375;959.7056;;;;
2020/04/23 00:46:10;;;;;;;4.9;3.7;;;;;;;10.73;48.57617;959.7159;;;;
2020/04/23 00:48:36;;;;;;;4.8;3.4;;;;;;;10.62;48.75781;959.7186;;;;
2020/04/23 00:51:01;;;;;;;6.1;3.6;;;;;;;10.6;48.3291;959.791;;;;
2020/04/23 00:53:27;;;;;;;5.1;3.3;;;;;;;10.56;47.66992;959.8311;;;;
2020/04/23 00:55:53;;;;;;;5.3;3.7;;;;;;;10.67;47.1748;959.8101;;;;
2020/04/23 00:58:19;;;;;;;5.3;3.7;;;;;;;10.69;47.38477;959.7821;;;;
2020/04/23 01:00:45;;;;;;;4.3;3.6;;;;;;;10.76;47.31152;959.8134;;;;
2020/04/23 01:03:13;;;;;;;5.1;3.6;;;;;;;10.87;47.33594;959.8359;;;;
2020/04/23 01:05:41;;;;;;;5.7;3.9;;;;;;;10.65;49.82031;959.8181;;;;
2020/04/23 01:08:06;;;;;;;6.5;3.8;;;;;;;10.58;49.52441;959.8427;;;;
2020/04/23 01:10:32;;;;;;;6;4.4;;;;;;;10.62;48.91895;959.8392;;;;
2020/04/23 01:12:57;;;;;;;7.1;4.2;;;;;;;10.67;48.91309;959.9063;;;;
2020/04/23 01:15:22;;;;;;;6.3;4.3;;;;;;;10.61;48.71094;959.8628;;;;
2020/04/23 01:17:47;;;;;;;7.2;4.3;;;;;;;10.6;49.03125;959.8211;;;;
2020/04/23 01:20:14;;;;;;;9;4.9;;;;;;;10.35;51.00586;959.8798;;;;
2020/04/23 01:22:39;;;;;;;6.1;4.6;;;;;;;10.32;50.25488;959.8784;;;;
2020/04/23 01:25:05;;;;;;;6.5;4.3;;;;;;;10.31;50.49414;959.8755;;;;
2020/04/23 01:27:30;;;;;;;7;4.5;;;;;;;10.33;50.99121;959.9185;;;;
2020/04/23 01:29:55;;;;;;;7.5;4.3;;;;;;;10.27;50.22559;959.8635;;;;
2020/04/23 01:32:21;;;;;;;7.3;4.4;;;;;;;10.2;51.53906;959.8786;;;;
2020/04/23 01:34:46;;;;;;;5.6;4.2;;;;;;;10.26;50.0752;959.8672;;;;
2020/04/23 01:37:12;;;;;;;5.6;4.6;;;;;;;9.91;52.34375;959.8538;;;;
2020/04/23 01:39:37;;;;;;;6.1;4.7;;;;;;;9.9;52.15918;959.8839;;;;
2020/04/23 01:42:04;;;;;;;7;4.6;;;;;;;9.86;52.45313;959.8885;;;;
2020/04/23 01:44:29;;;;;;;6.1;4.6;;;;;;;9.93;52.03613;959.8826;;;;
2020/04/23 01:46:54;;;;;;;5.4;4.5;;;;;;;9.9;52.07813;959.8803;;;;
2020/04/23 01:49:20;;;;;;;7;4.5;;;;;;;10.04;51.26758;959.8842;;;;
2020/04/23 01:52:30;;;;;;;6.7;4.7;;;;;;;10.1;51.50391;959.9327;;;;
2020/04/23 01:54:20;;;;;;;6.5;4.7;;;;;;;9.89;51.73242;959.9526;;;;
2020/04/23 01:57:28;;;;;;;6.8;4.8;;;;;;;9.88;52.15723;960.0234;;;;
2020/04/23 02:01:43;;;;;;;8;4.4;;;;;;;9.91;52.79199;960.015;;;;
2020/04/23 02:04:36;;;;;;;7.9;4.8;;;;;;;9.75;53.56445;959.9973;;;;
2020/04/23 02:06:26;;;;;;;6.3;4.4;;;;;;;9.73;53.81543;959.9255;;;;
2020/04/23 02:09:34;;;;;;;5.4;4.4;;;;;;;9.62;53.02051;959.9539;;;;
2020/04/23 02:11:18;;;;;;;8.4;5.2;;;;;;;9.52;54.07617;959.9378;;;;
2020/04/23 02:13:41;;;;;;;7.6;5.1;;;;;;;9.61;52.60645;959.8934;;;;
2020/04/23 02:16:06;;;;;;;7;5.1;;;;;;;9.65;52.88574;959.8683;;;;
2020/04/23 02:18:30;;;;;;;7.7;4.8;;;;;;;9.52;53.36426;959.7921;;;;
2020/04/23 02:23:33;;;;;;;7.8;5;;;;;;;9.49;52.51172;959.7801;;;;
2020/04/23 02:26:01;;;;;;;6.5;4.8;;;;;;;9.65;52.35742;959.8137;;;;
2020/04/23 02:28:20;;;;;;;8;4.7;;;;;;;9.61;52.42285;959.8845;;;;
2020/04/23 02:35:34;;;;;;;8.1;4.7;;;;;;;9.54;52.88477;959.9405;;;;
2020/04/23 02:38:33;;;;;;;7.4;5.2;;;;;;;9.51;52.8125;959.9422;;;;
2020/04/23 02:40:56;;;;;;;7.2;5.1;;;;;;;9.53;52.50488;959.9558;;;;
2020/04/23 02:42:54;;;;;;;7.1;5.1;;;;;;;9.28;53.17383;959.9506;;;;
2020/04/23 02:47:37;;;;;;;7.1;4.9;;;;;;;9.19;52.99121;960.0095;;;;
2020/04/23 02:52:26;;;;;;;6.9;4.9;;;;;;;9.33;52.85938;960.0745;;;;
2020/04/23 02:57:24;;;;;;;5.9;5.3;;;;;;;9.08;54.37598;960.1423;;;;
2020/04/23 03:02:02;;;;;;;8.6;5.3;;;;;;;9.12;54.94336;960.1847;;;;
2020/04/23 03:04:25;;;;;;;7;4.9;;;;;;;9.16;54.25977;960.1721;;;;
2020/04/23 03:06:50;;;;;;;7.1;4.9;;;;;;;9.1;53.75977;960.1511;;;;
2020/04/23 03:09:15;;;;;;;7.1;5.1;;;;;;;9.3;52.72852;960.1616;;;;
2020/04/23 03:11:40;;;;;;;7.8;5.3;;;;;;;9.12;53.10938;960.164;;;;
2020/04/23 03:14:06;;;;;;;8.1;5;;;;;;;8.92;54.03516;960.1887;;;;
2020/04/23 03:16:31;;;;;;;6.4;5;;;;;;;9.07;53.53809;960.2064;;;;
2020/04/23 03:18:57;;;;;;;10.1;5.2;;;;;;;9.09;53.4502;960.2136;;;;
2020/04/23 03:21:22;;;;;;;6.6;5.3;;;;;;;9.03;54.12891;960.1767;;;;
2020/04/23 03:23:48;;;;;;;9.2;5.5;;;;;;;8.78;54.75195;960.1484;;;;
2020/04/23 03:26:13;;;;;;;8;5.1;;;;;;;8.98;53.73242;960.1813;;;;
2020/04/23 03:28:51;;;;;;;7.1;5.1;;;;;;;8.9;54.21582;960.201;;;;
2020/04/23 03:31:16;;;;;;;7.8;4.7;;;;;;;8.82;54.01074;960.1362;;;;
2020/04/23 03:33:41;;;;;;;7.2;5;;;;;;;8.79;54.15625;960.0941;;;;
2020/04/23 03:36:06;;;;;;;6.4;5.3;;;;;;;8.68;54.34961;960.1125;;;;
2020/04/23 03:38:31;;;;;;;5.2;4.4;;;;;;;8.77;54.00488;960.1295;;;;
2020/04/23 03:40:57;;;;;;;6.2;4.8;;;;;;;8.83;53.90918;960.145;;;;
2020/04/23 03:43:22;;;;;;;6;4.9;;;;;;;8.75;54.18652;960.2328;;;;
2020/04/23 03:45:48;;;;;;;6.4;5;;;;;;;8.6;54.76367;960.3035;;;;
2020/04/23 03:48:13;;;;;;;9.3;4.7;;;;;;;8.57;54.72461;960.3052;;;;
2020/04/23 03:50:39;;;;;;;7.7;4.6;;;;;;;8.62;54.13477;960.3391;;;;
2020/04/23 03:53:04;;;;;;;5.7;4.6;;;;;;;8.63;54.2627;960.3279;;;;
2020/04/23 03:55:31;;;;;;;6.4;4.7;;;;;;;8.46;54.46973;960.323;;;;
2020/04/23 03:57:56;;;;;;;8.9;4.8;;;;;;;8.57;54.29004;960.3425;;;;
